Agen-La Garenne Airport

LFBA · Nouvelle-Aquitaine, França

4 de outubro de 2022

Hora Código Clima Temp. Visibilidade Tecto Vento METAR/SPECI
09:00
L
11 °C 250 m - 110° 110° 3 kt METAR LFBA 040700Z AUTO 11003KT 0300 0250 R29/0300N FG VV/// 11/11 Q1021 BECMG CAVOK
08:30
L
10 °C 350 m - 110° 110° 4 kt METAR LFBA 040630Z AUTO 11004KT 0400 0350 R29/0400N FG VV/// 10/10 Q1021 BECMG CAVOK
08:00
L
9 °C 500 m - 110° 110° 3 kt METAR LFBA 040600Z AUTO 11003KT 0550 0500 R29/0450D FG VV/// 09/09 Q1021 TEMPO 2000 BR BECMG NSC
07:30
L
9 °C 650 m - 090° 090° 3 kt METAR LFBA 040530Z AUTO 09003KT 0650 R29/0600D FG VV/// 09/08 Q1021 TEMPO 2000 BR BECMG NSC
07:00
L
9 °C 1,2 km - 100° 100° 4 kt METAR LFBA 040500Z AUTO 10004KT 9999 1200 R29/1100D SCT001 09/09 Q1020
06:30
V
9 °C 10 km+ - 110° 110° 3 kt METAR LFBA 040430Z AUTO 11003KT CAVOK 09/08 Q1020
06:00
V
9 °C 10 km+ - 110° 110° 3 kt METAR LFBA 040400Z AUTO 11003KT CAVOK 09/09 Q1020
05:30
I
10 °C 2,7 km - Var 000° 0 kt METAR LFBA 040330Z AUTO 00000KT 7000 2700 NSC 10/09 Q1020
05:00
V
10 °C 10 km+ - Var 000° 0 kt METAR LFBA 040300Z AUTO 00000KT CAVOK 10/09 Q1020
04:30
V
10 °C 10 km+ - Var 000° 0 kt METAR LFBA 040230Z AUTO 00000KT CAVOK 10/10 Q1020
04:00
L
10 °C 1,4 km - Var 000° 0 kt METAR LFBA 040200Z AUTO 00000KT 1900 1400 R29/1500D BR NSC 10/10 Q1020
03:30
V
11 °C 10 km+ - Var Var 1 kt METAR LFBA 040130Z AUTO VRB01KT CAVOK 11/11 Q1021
03:00
V
11 °C 10 km+ - Var 000° 0 kt METAR LFBA 040100Z AUTO 00000KT CAVOK 11/11 Q1021
02:30
V
11 °C 10 km+ - Var 000° 0 kt METAR LFBA 040030Z AUTO 00000KT CAVOK 11/11 Q1021
02:00
V
12 °C 10 km+ - Var 000° 0 kt METAR LFBA 040000Z AUTO 00000KT CAVOK 12/11 Q1021
01:30
V
12 °C 10 km+ - Var 000° 0 kt METAR LFBA 032330Z AUTO 00000KT CAVOK 12/11 Q1021
01:00
V
12 °C 10 km+ - Var 000° 0 kt METAR LFBA 032300Z AUTO 00000KT CAVOK 12/12 Q1021
00:30
V
12 °C 10 km+ - Var 000° 0 kt METAR LFBA 032230Z AUTO 00000KT CAVOK 12/12 Q1021
00:00
V
13 °C 10 km+ - Var 000° 0 kt METAR LFBA 032200Z AUTO 00000KT CAVOK 13/12 Q1021

3 de outubro de 2022

Hora Código Clima Temp. Visibilidade Tecto Vento METAR/SPECI
23:30
V
13 °C 10 km+ - 320° 320° 1 kt METAR LFBA 032130Z AUTO 32001KT CAVOK 13/12 Q1021
23:00
V
14 °C 10 km+ - Var 000° 0 kt METAR LFBA 032100Z AUTO 00000KT CAVOK 14/12 Q1021
22:30
V
14 °C 10 km+ - Var 000° 0 kt METAR LFBA 032030Z AUTO 00000KT CAVOK 14/12 Q1021 NOSIG
22:00
V
15 °C 10 km+ - 220° 220° 2 kt METAR LFBA 032000Z AUTO 22002KT CAVOK 15/12 Q1021 NOSIG
21:30
V
16 °C 10 km+ - 230° 230° 2 kt METAR LFBA 031930Z AUTO 23002KT CAVOK 16/13 Q1021 NOSIG
21:00
V
17 °C 10 km+ - 240° 240° 3 kt METAR LFBA 031900Z AUTO 24003KT CAVOK 17/14 Q1021 NOSIG
20:30
V
18 °C 10 km+ - Var 000° 0 kt METAR LFBA 031830Z AUTO 00000KT CAVOK 18/13 Q1021 NOSIG
20:00
V
20 °C 10 km+ - Var Var 2 kt METAR LFBA 031800Z AUTO VRB02KT CAVOK 20/13 Q1021 NOSIG
19:30
V
22 °C 10 km+ - 350° 350° 3 kt METAR LFBA 031730Z AUTO 35003KT CAVOK 22/13 Q1021 NOSIG
19:00
V
23 °C 10 km+ - 010° 010° 5 kt METAR LFBA 031700Z AUTO 01005KT CAVOK 23/13 Q1021 NOSIG
18:30
V
24 °C 10 km+ - 360° 360° 5 kt METAR LFBA 031630Z AUTO 36005KT 330V040 CAVOK 24/14 Q1021 NOSIG
18:00
V
24 °C 10 km+ - 010° 010° 5 kt METAR LFBA 031600Z AUTO 01005KT 290V040 CAVOK 24/14 Q1021 NOSIG
17:30
V
25 °C 10 km+ - 360° 360° 5 kt METAR LFBA 031530Z AUTO 36005KT 290V040 CAVOK 25/13 Q1021 NOSIG
17:00
V
25 °C 10 km+ - 010° 010° 6 kt METAR LFBA 031500Z AUTO 01006KT 320V060 CAVOK 25/13 Q1021 NOSIG
16:30
V
25 °C 10 km+ - 330° 330° 6 kt METAR LFBA 031430Z AUTO 33006KT 290V020 CAVOK 25/14 Q1021 NOSIG
16:00
V
25 °C 10 km+ - 310° 310° 3 kt METAR LFBA 031400Z AUTO 31003KT 190V360 CAVOK 25/14 Q1021 NOSIG
15:30
V
24 °C 10 km+ - 310° 310° 3 kt METAR LFBA 031330Z AUTO 31003KT 250V030 CAVOK 24/14 Q1022 NOSIG
15:00
V
24 °C 10 km+ - Var Var 3 kt METAR LFBA 031300Z AUTO VRB03KT CAVOK 24/13 Q1022 NOSIG
14:30
V
24 °C 10 km+ - 280° 280° 4 kt METAR LFBA 031230Z AUTO 28004KT 240V330 CAVOK 24/13 Q1022 NOSIG
14:00
V
23 °C 10 km+ - 010° 010° 4 kt METAR LFBA 031200Z AUTO 01004KT 280V050 CAVOK 23/13 Q1023 NOSIG
13:30
V
23 °C 10 km+ - Var Var 2 kt METAR LFBA 031130Z AUTO VRB02KT CAVOK 23/13 Q1023 NOSIG
13:00
V
23 °C 10 km+ - Var Var 2 kt METAR LFBA 031100Z AUTO VRB02KT CAVOK 23/13 Q1023 NOSIG
12:30
V
23 °C 10 km+ - Var Var 3 kt METAR LFBA 031030Z AUTO VRB03KT CAVOK 23/13 Q1024 NOSIG
12:00
V
22 °C 10 km+ - Var Var 3 kt METAR LFBA 031000Z AUTO VRB03KT CAVOK 22/14 Q1024 NOSIG
11:30
V
21 °C 10 km+ - Var Var 2 kt METAR LFBA 030930Z AUTO VRB02KT CAVOK 21/14 Q1024 NOSIG
11:00
V
19 °C 10 km+ - Var 000° 0 kt METAR LFBA 030900Z AUTO 00000KT CAVOK 19/15 Q1024 NOSIG
10:30
V
17 °C 10 km+ - Var 000° 0 kt METAR LFBA 030830Z AUTO 00000KT CAVOK 17/15 Q1024 NOSIG
10:00
V
16 °C 10 km+ - Var 000° 0 kt METAR LFBA 030800Z AUTO 00000KT CAVOK 16/15 Q1024 NOSIG
09:30
V
15 °C 10 km+ - Var 000° 0 kt METAR LFBA 030730Z AUTO 00000KT 9999 FEW042 15/15 Q1024 NOSIG
09:00
V
13 °C 10 km+ - Var 000° 0 kt METAR LFBA 030700Z AUTO 00000KT CAVOK 13/13 Q1024 TEMPO 0600 FG VV///
08:30
I
12 °C 1,6 km - Var 000° 0 kt METAR LFBA 030630Z AUTO 00000KT 4600 1600 R29/1300D BR FEW045 12/12 Q1024 TEMPO VV/// BECMG 9999 NSW
08:00
L
12 °C 800 m - Var 000° 0 kt METAR LFBA 030600Z AUTO 00000KT 1000 0800 R29/0800U BCFG NSC 12/11 Q1024 BECMG 9999 NSW
07:30
V
13 °C 10 km+ - Var 000° 0 kt METAR LFBA 030530Z AUTO 00000KT 9999 FEW046 13/13 Q1024 NOSIG
07:00
V
13 °C 10 km+ - Var 000° 0 kt METAR LFBA 030500Z AUTO 00000KT 9999 SCT046 13/12 Q1024
06:30
V
14 °C 10 km+ 4.500 ft Var 000° 0 kt METAR LFBA 030430Z AUTO 00000KT 9999 FEW039 BKN045 14/14 Q1024
06:00
V
14 °C 10 km+ 4.500 ft 320° 320° 2 kt METAR LFBA 030400Z AUTO 32002KT 9999 BKN045 14/14 Q1024
05:30
V
14 °C 10 km+ 4.500 ft Var Var 1 kt METAR LFBA 030330Z AUTO VRB01KT 9999 OVC045 14/14 Q1024
05:00
V
14 °C 10 km+ 4.700 ft Var Var 2 kt METAR LFBA 030300Z AUTO VRB02KT 9999 FEW038 BKN047 14/14 Q1025
04:30
V
15 °C 10 km+ 4.700 ft 310° 310° 1 kt METAR LFBA 030230Z AUTO 31001KT 9999 BKN047 15/14 Q1025
04:00
V
15 °C 10 km+ 4.600 ft Var Var 1 kt METAR LFBA 030200Z AUTO VRB01KT 9999 FEW036 OVC046 15/14 Q1025
03:30
V
15 °C 10 km+ 3.900 ft 270° 270° 2 kt METAR LFBA 030130Z AUTO 27002KT 9999 FEW031 OVC039 15/14 Q1025
03:00
V
14 °C 10 km+ 3.800 ft Var 000° 0 kt METAR LFBA 030100Z AUTO 00000KT 9999 BKN038 OVC045 14/13 Q1025
02:30
V
14 °C 10 km+ - 230° 230° 2 kt METAR LFBA 030030Z AUTO 23002KT 9999 FEW045 14/13 Q1025
02:00
V
15 °C 10 km+ - 230° 230° 3 kt METAR LFBA 030000Z AUTO 23003KT CAVOK 15/14 Q1025
01:30
V
15 °C 10 km+ - Var Var 3 kt METAR LFBA 022330Z AUTO VRB03KT CAVOK 15/14 Q1025
01:00
V
15 °C 10 km+ - 240° 240° 3 kt METAR LFBA 022300Z AUTO 24003KT 9999 FEW039 15/14 Q1025
00:30
V
15 °C 10 km+ 4.000 ft 270° 270° 2 kt METAR LFBA 022230Z AUTO 27002KT 9999 BKN040 15/14 Q1025
00:00
V
15 °C 10 km+ 3.800 ft 300° 300° 1 kt METAR LFBA 022200Z AUTO 30001KT 9999 BKN038 15/14 Q1026

2 de outubro de 2022

Hora Código Clima Temp. Visibilidade Tecto Vento METAR/SPECI
23:30
V
14 °C 10 km+ 4.000 ft Var 000° 0 kt METAR LFBA 022130Z AUTO 00000KT 9999 BKN040 14/13 Q1026
23:00
V
14 °C 10 km+ - Var 000° 0 kt METAR LFBA 022100Z AUTO 00000KT 9999 FEW042 14/13 Q1025
22:30
V
15 °C 10 km+ - Var 000° 0 kt METAR LFBA 022030Z AUTO 00000KT 9999 FEW042 15/13 Q1025
22:00
V
15 °C 10 km+ - Var 000° 0 kt METAR LFBA 022000Z AUTO 00000KT CAVOK 15/14 Q1025 NOSIG
21:30
V
16 °C 10 km+ - Var 000° 0 kt METAR LFBA 021930Z AUTO 00000KT CAVOK 16/14 Q1025 NOSIG
21:00
V
17 °C 10 km+ - Var 000° 0 kt METAR LFBA 021900Z AUTO 00000KT CAVOK 17/13 Q1025 NOSIG
20:30
V
18 °C 10 km+ - 210° 210° 3 kt METAR LFBA 021830Z AUTO 21003KT CAVOK 18/15 Q1025 NOSIG
20:00
V
19 °C 10 km+ - Var Var 2 kt METAR LFBA 021800Z AUTO VRB02KT CAVOK 19/15 Q1025 NOSIG
19:30
V
20 °C 10 km+ 4.900 ft 330° 330° 3 kt METAR LFBA 021730Z AUTO 33003KT 9999 BKN049 20/15 Q1025 NOSIG
19:00
V
22 °C 10 km+ 4.800 ft 330° 330° 4 kt METAR LFBA 021700Z AUTO 33004KT 9999 OVC048 22/15 Q1025 NOSIG
18:30
V
22 °C 10 km+ 4.500 ft 330° 330° 4 kt METAR LFBA 021630Z AUTO 33004KT 310V010 9999 BKN045 22/15 Q1025 NOSIG
18:00
V
23 °C 10 km+ 4.500 ft 020° 020° 4 kt METAR LFBA 021600Z AUTO 02004KT 9999 BKN045 23/15 Q1025 NOSIG
17:30
V
23 °C 10 km+ 4.200 ft 350° 350° 4 kt METAR LFBA 021530Z AUTO 35004KT 9999 BKN042 23/15 Q1025 NOSIG
17:00
V
23 °C 10 km+ 4.100 ft 340° 340° 3 kt METAR LFBA 021500Z AUTO 34003KT 310V010 9999 BKN041 23/14 Q1025 NOSIG
16:30
V
24 °C 10 km+ - 020° 020° 4 kt METAR LFBA 021430Z AUTO 02004KT 340V070 9999 SCT037 24/15 Q1025 NOSIG
16:00
V
24 °C 10 km+ - Var Var 2 kt METAR LFBA 021400Z AUTO VRB02KT 9999 FEW037 24/14 Q1025 NOSIG
15:30
V
23 °C 10 km+ 3.600 ft 350° 350° 6 kt METAR LFBA 021330Z AUTO 35006KT 310V020 9999 BKN036 23/15 Q1026 NOSIG
15:00
V
24 °C 10 km+ - 250° 250° 3 kt METAR LFBA 021300Z AUTO 25003KT 210V300 9999 FEW036 24/15 Q1026 NOSIG
14:30
V
23 °C 10 km+ - Var Var 3 kt METAR LFBA 021230Z AUTO VRB03KT 9999 FEW033 23/14 Q1026 NOSIG
14:00
V
22 °C 10 km+ 3.000 ft Var Var 3 kt METAR LFBA 021200Z AUTO VRB03KT 9999 BKN030 22/15 Q1027 NOSIG
13:30
V
22 °C 10 km+ - Var Var 2 kt METAR LFBA 021130Z AUTO VRB02KT 9999 FEW021 22/15 Q1027 NOSIG
13:00
V
22 °C 10 km+ - 210° 210° 3 kt METAR LFBA 021100Z AUTO 21003KT 130V270 9999 FEW018 22/16 Q1027 NOSIG
12:30
V
21 °C 10 km+ - 180° 180° 3 kt METAR LFBA 021030Z AUTO 18003KT 110V250 9999 SCT037 21/16 Q1027 NOSIG
12:00
V
19 °C 10 km+ 3.600 ft 100° 100° 3 kt METAR LFBA 021000Z AUTO 10003KT 040V160 9999 SCT030 OVC036 19/16 Q1028 NOSIG
11:30
V
18 °C 10 km+ 3.200 ft 090° 090° 5 kt METAR LFBA 020930Z AUTO 09005KT 060V140 9999 SCT008 OVC032 18/16 Q1028 NOSIG
11:00
I
17 °C 10 km+ 600 ft 070° 070° 3 kt METAR LFBA 020900Z AUTO 07003KT 040V100 9999 OVC006 17/15 Q1028 BECMG BKN016
10:30
I
17 °C 10 km+ 600 ft 080° 080° 3 kt METAR LFBA 020830Z AUTO 08003KT 040V110 9999 OVC006 17/16 Q1028 BECMG SCT020
10:00
I
16 °C 10 km+ 500 ft 110° 110° 3 kt METAR LFBA 020800Z AUTO 11003KT 060V130 9999 OVC005 16/16 Q1027 BECMG SCT020
09:30
L
16 °C 10 km+ 400 ft Var Var 3 kt METAR LFBA 020730Z AUTO VRB03KT 9999 BKN004 OVC011 16/16 Q1027 BECMG SCT020
Dados mais antigos

Nós e terceiros acompanhamos seu comportamento na internet em nosso site com cookies. Se você continuar, nós assumimos que você concorda com nossa política de cookies. Saiba mais